Nearby METAR Reports

 

YSCB - Canberra (civ/Mi, Australia
Distance from station: NNW 6km
Updated: Fri, 19-Oct-2018 11:00am AEDT
Clear
Clear
 Wind from NNW
Wind: NNW 22 km/h
Temperature: 24°C
Dew Point: 7°C
Humidity: 34%
Barometer: 1018 hPa
Summary: Clear
Visibility: greater than 10 km
2018/10/19 00:00 YSCB 190000Z 33012KT CAVOK 24/07 Q1018 NOSIG
YCOM - Cooma Snowy Mtns, Australia
Distance from station: S 110km
Updated: Fri, 19-Oct-2018 11:00am AEDT
Clear
Clear
 Wind from NW
Wind: NW 17 km/h
Temperature: 20°C
Dew Point: -1°C
Humidity: 24%
Barometer: 1018 hPa
Clouds: Clear
Visibility: 10 km
2018/10/19 00:00 YCOM 190000Z AUTO 32009KT 9999 // NCD 20/M01 Q1018
 
YSNW - Nowra (aus-Navy), Australia
Distance from station: ENE 127km
Updated: Fri, 19-Oct-2018 11:00am AEDT
Clear
Clear
 Wind from N
Wind: N 13 km/h
Temperature: 27°C
Dew Point: 10°C
Humidity: 34%
Barometer: 1016 hPa
Summary: Clear
Visibility: greater than 10 km
2018/10/19 00:00 YSNW 190000Z 35007KT CAVOK 27/10 Q1016 NOSIG
YSWG - Wagga Wagga(Cv/M, Australia
Distance from station: W 159km
Updated: Fri, 19-Oct-2018 11:00am AEDT
Clear
Clear
 Wind from ENE
Wind: ENE 6 km/h
Temperature: 23°C
Dew Point: 8°C
Humidity: 38%
Barometer: 1017 hPa
Clouds: Clear
Visibility: 10 km
2018/10/19 00:00 YSWG 190000Z AUTO 06003KT 9999 // NCD 23/08 Q1017
 
YMER - Merimbula Arpt, Australia
Distance from station: SSE 187km
Updated: Fri, 19-Oct-2018 11:00am AEDT
Clear
Clear
 Wind from ESE
Wind: ESE 11 km/h
Temperature: 22°C
Dew Point: 15°C
Humidity: 65%
Barometer: 1016 hPa
Clouds: Clear
Visibility: 10 km
2018/10/19 00:00 YMER 190000Z AUTO 11006KT 9999 // NCD 22/15 Q1016
YMAY - Albury Airport, Australia
Distance from station: WSW 220km
Updated: Fri, 19-Oct-2018 11:00am AEDT
Clear
Clear
 Wind from ESE
Wind: ESE 11 km/h
Temperature: 21°C
Dew Point: 14°C
Humidity: 64%
Barometer: 1017 hPa
Clouds: Clear
Visibility: 10 km
2018/10/19 00:00 YMAY 190000Z AUTO 12006KT 9999 // NCD 21/14 Q1017
 
YSSY - Sydney Intl Airp, Australia
Distance from station: NE 236km
Updated: Fri, 19-Oct-2018 11:00am AEDT
Few Clouds
Few Clouds
 Wind from WNW
Wind: WNW 13 km/h
Temperature: 23°C
Dew Point: 18°C
Humidity: 74%
Barometer: 1017 hPa
Clouds: Few Clouds
Visibility: 10 km
Cloud details: Few Clouds 610 m
2018/10/19 00:00 YSSY 190000Z 30007KT 270V330 9999 FEW020 23/18 Q1017 FM0100 01010KT CAVOK
YSRI - Richmond (aus-Af, Australia
Distance from station: NE 240km
Updated: Fri, 19-Oct-2018 11:00am AEDT
Overcast
Overcast
 Wind from calm
Wind: Calm
Temperature: 20°C
Dew Point: 19°C
Humidity: 94%
Barometer: 1017 hPa
Clouds: Overcast
Visibility: 10 km
Cloud details: Overcast 183 m
2018/10/19 00:00 YSRI 190000Z AUTO 00000KT 9999 // OVC006 20/19 Q1017
 
YNAR - Narrandera, Australia
Distance from station: WNW 254km
Updated: Fri, 19-Oct-2018 11:00am AEDT

 Wind from NNW
Wind: NNW 15 km/h
Temperature: 26°C
Dew Point: 4°C
Humidity: 24%
Barometer: 1016 hPa
2018/10/19 00:00 YNAR 190000Z AUTO 34008KT //// // ////// 26/04 Q1016
YWGT - Wangaratta Arp, Australia
Distance from station: WSW 288km
Updated: Fri, 19-Oct-2018 11:00am AEDT

 Wind from N
Wind: N 7 km/h
Temperature: 21°C
Dew Point: 12°C
Humidity: 57%
Barometer: 1016 hPa
Visibility: 10 km
2018/10/19 00:00 YWGT 190000Z AUTO 36004KT 9999 // ////// 21/12 Q1016